sensor_id;sensor_type;location;lat;lon;timestamp;temperature;humidity
12853;DHT22;6495;51.808;7.478;2023-02-01T00:01:25;5.30;99.90
12853;DHT22;6495;51.808;7.478;2023-02-01T00:03:54;5.30;99.90
12853;DHT22;6495;51.808;7.478;2023-02-01T00:06:23;5.30;99.90
12853;DHT22;6495;51.808;7.478;2023-02-01T00:08:52;5.30;99.90
12853;DHT22;6495;51.808;7.478;2023-02-01T00:11:22;5.30;99.90
12853;DHT22;6495;51.808;7.478;2023-02-01T00:13:51;5.30;99.90
12853;DHT22;6495;51.808;7.478;2023-02-01T00:16:22;5.30;99.90
12853;DHT22;6495;51.808;7.478;2023-02-01T00:18:58;5.30;99.90
12853;DHT22;6495;51.808;7.478;2023-02-01T00:21:27;5.30;99.90
12853;DHT22;6495;51.808;7.478;2023-02-01T00:23:57;5.30;99.90
12853;DHT22;6495;51.808;7.478;2023-02-01T00:26:30;5.30;99.90
12853;DHT22;6495;51.808;7.478;2023-02-01T00:29:00;5.30;99.90
12853;DHT22;6495;51.808;7.478;2023-02-01T00:31:29;5.30;99.90
12853;DHT22;6495;51.808;7.478;2023-02-01T00:33:59;5.30;99.90
12853;DHT22;6495;51.808;7.478;2023-02-01T00:36:28;5.30;99.90
12853;DHT22;6495;51.808;7.478;2023-02-01T00:38:56;5.30;99.90
12853;DHT22;6495;51.808;7.478;2023-02-01T00:41:25;5.30;99.90
12853;DHT22;6495;51.808;7.478;2023-02-01T00:43:54;5.30;99.90
12853;DHT22;6495;51.808;7.478;2023-02-01T00:46:22;5.30;99.90
12853;DHT22;6495;51.808;7.478;2023-02-01T00:48:51;5.40;99.90
12853;DHT22;6495;51.808;7.478;2023-02-01T00:51:22;5.30;99.90
12853;DHT22;6495;51.808;7.478;2023-02-01T00:53:52;5.30;99.90
12853;DHT22;6495;51.808;7.478;2023-02-01T00:56:21;5.30;99.90
12853;DHT22;6495;51.808;7.478;2023-02-01T00:58:49;5.30;99.90
12853;DHT22;6495;51.808;7.478;2023-02-01T01:01:19;5.40;99.90
12853;DHT22;6495;51.808;7.478;2023-02-01T01:03:50;5.40;99.90
12853;DHT22;6495;51.808;7.478;2023-02-01T01:06:24;5.40;99.90
12853;DHT22;6495;51.808;7.478;2023-02-01T01:08:56;5.40;99.90
12853;DHT22;6495;51.808;7.478;2023-02-01T01:11:26;5.40;99.90
12853;DHT22;6495;51.808;7.478;2023-02-01T01:13:57;5.40;99.90
12853;DHT22;6495;51.808;7.478;2023-02-01T01:16:28;5.40;99.90
12853;DHT22;6495;51.808;7.478;2023-02-01T01:18:58;5.40;99.90
12853;DHT22;6495;51.808;7.478;2023-02-01T01:21:28;5.40;99.90
12853;DHT22;6495;51.808;7.478;2023-02-01T01:23:57;5.40;99.90
12853;DHT22;6495;51.808;7.478;2023-02-01T01:26:27;5.40;99.90
12853;DHT22;6495;51.808;7.478;2023-02-01T01:28:58;5.40;99.90
12853;DHT22;6495;51.808;7.478;2023-02-01T01:31:27;5.40;99.90
12853;DHT22;6495;51.808;7.478;2023-02-01T01:33:58;5.40;99.90
12853;DHT22;6495;51.808;7.478;2023-02-01T01:36:29;5.40;99.90
12853;DHT22;6495;51.808;7.478;2023-02-01T01:38:57;5.40;99.90
12853;DHT22;6495;51.808;7.478;2023-02-01T01:41:29;5.40;99.90
12853;DHT22;6495;51.808;7.478;2023-02-01T01:44:53;5.40;99.90
12853;DHT22;6495;51.808;7.478;2023-02-01T01:47:14;5.40;99.90
12853;DHT22;6495;51.808;7.478;2023-02-01T01:49:43;5.30;99.90
12853;DHT22;6495;51.808;7.478;2023-02-01T01:52:14;5.40;99.90
12853;DHT22;6495;51.808;7.478;2023-02-01T01:54:45;5.40;99.90
12853;DHT22;6495;51.808;7.478;2023-02-01T01:57:19;5.40;99.90
12853;DHT22;6495;51.808;7.478;2023-02-01T01:59:56;5.40;99.90
12853;DHT22;6495;51.808;7.478;2023-02-01T02:02:41;5.40;99.90
12853;DHT22;6495;51.808;7.478;2023-02-01T02:05:14;5.40;99.90
12853;DHT22;6495;51.808;7.478;2023-02-01T02:07:48;5.30;99.90
12853;DHT22;6495;51.808;7.478;2023-02-01T02:10:18;5.40;99.90
12853;DHT22;6495;51.808;7.478;2023-02-01T02:12:48;5.40;99.90
12853;DHT22;6495;51.808;7.478;2023-02-01T02:15:17;5.40;99.90
12853;DHT22;6495;51.808;7.478;2023-02-01T02:17:51;5.40;99.90
12853;DHT22;6495;51.808;7.478;2023-02-01T02:20:45;5.40;99.90
12853;DHT22;6495;51.808;7.478;2023-02-01T02:24:03;5.40;99.90
12853;DHT22;6495;51.808;7.478;2023-02-01T02:27:06;5.40;99.90
12853;DHT22;6495;51.808;7.478;2023-02-01T02:30:22;5.40;99.90
12853;DHT22;6495;51.808;7.478;2023-02-01T02:36:37;5.40;99.90
12853;DHT22;6495;51.808;7.478;2023-02-01T02:39:18;5.40;99.90
12853;DHT22;6495;51.808;7.478;2023-02-01T02:41:58;5.40;99.90
12853;DHT22;6495;51.808;7.478;2023-02-01T02:44:50;5.40;99.90
12853;DHT22;6495;51.808;7.478;2023-02-01T02:47:49;5.40;99.90
12853;DHT22;6495;51.808;7.478;2023-02-01T02:50:27;5.40;99.90
12853;DHT22;6495;51.808;7.478;2023-02-01T02:53:23;5.40;99.90
12853;DHT22;6495;51.808;7.478;2023-02-01T02:56:14;5.40;99.90
12853;DHT22;6495;51.808;7.478;2023-02-01T02:59:02;5.40;99.90
12853;DHT22;6495;51.808;7.478;2023-02-01T03:01:49;5.40;99.90
12853;DHT22;6495;51.808;7.478;2023-02-01T03:04:35;5.40;99.90
12853;DHT22;6495;51.808;7.478;2023-02-01T03:07:14;5.40;99.90
12853;DHT22;6495;51.808;7.478;2023-02-01T03:10:05;5.40;99.90
12853;DHT22;6495;51.808;7.478;2023-02-01T03:12:39;5.40;99.90
12853;DHT22;6495;51.808;7.478;2023-02-01T03:15:30;5.40;99.90
12853;DHT22;6495;51.808;7.478;2023-02-01T03:18:05;5.40;99.90
12853;DHT22;6495;51.808;7.478;2023-02-01T03:20:40;5.40;99.90
12853;DHT22;6495;51.808;7.478;2023-02-01T03:23:16;5.50;99.90
12853;DHT22;6495;51.808;7.478;2023-02-01T03:25:48;5.50;99.90
12853;DHT22;6495;51.808;7.478;2023-02-01T03:28:22;5.40;99.90
12853;DHT22;6495;51.808;7.478;2023-02-01T03:30:54;5.50;99.90
12853;DHT22;6495;51.808;7.478;2023-02-01T03:33:24;5.50;99.90
12853;DHT22;6495;51.808;7.478;2023-02-01T03:36:03;5.40;99.90
12853;DHT22;6495;51.808;7.478;2023-02-01T03:38:49;5.40;99.90
12853;DHT22;6495;51.808;7.478;2023-02-01T03:41:27;5.50;99.90
12853;DHT22;6495;51.808;7.478;2023-02-01T03:44:08;5.50;99.90
12853;DHT22;6495;51.808;7.478;2023-02-01T03:46:45;5.50;99.90
12853;DHT22;6495;51.808;7.478;2023-02-01T03:49:21;5.50;99.90
12853;DHT22;6495;51.808;7.478;2023-02-01T03:51:54;5.50;99.90
12853;DHT22;6495;51.808;7.478;2023-02-01T03:54:27;5.50;99.90
12853;DHT22;6495;51.808;7.478;2023-02-01T03:57:01;5.50;99.90
12853;DHT22;6495;51.808;7.478;2023-02-01T03:59:38;5.50;99.90
12853;DHT22;6495;51.808;7.478;2023-02-01T04:02:07;5.50;99.90
12853;DHT22;6495;51.808;7.478;2023-02-01T04:04:36;5.50;99.90
12853;DHT22;6495;51.808;7.478;2023-02-01T04:07:05;5.50;99.90
12853;DHT22;6495;51.808;7.478;2023-02-01T04:09:35;5.50;99.90
12853;DHT22;6495;51.808;7.478;2023-02-01T04:12:03;5.50;99.90
12853;DHT22;6495;51.808;7.478;2023-02-01T04:14:32;5.50;99.90
12853;DHT22;6495;51.808;7.478;2023-02-01T04:17:00;5.50;99.90
12853;DHT22;6495;51.808;7.478;2023-02-01T04:19:28;5.50;99.90
12853;DHT22;6495;51.808;7.478;2023-02-01T04:21:57;5.50;99.90
12853;DHT22;6495;51.808;7.478;2023-02-01T04:24:25;5.50;99.90
12853;DHT22;6495;51.808;7.478;2023-02-01T04:26:54;5.50;99.90
12853;DHT22;6495;51.808;7.478;2023-02-01T04:29:23;5.50;99.90
12853;DHT22;6495;51.808;7.478;2023-02-01T04:31:51;5.50;99.90
12853;DHT22;6495;51.808;7.478;2023-02-01T04:34:19;5.60;99.90
12853;DHT22;6495;51.808;7.478;2023-02-01T04:36:49;5.50;99.90
12853;DHT22;6495;51.808;7.478;2023-02-01T04:39:17;5.60;99.90
12853;DHT22;6495;51.808;7.478;2023-02-01T04:41:45;5.50;99.90
12853;DHT22;6495;51.808;7.478;2023-02-01T04:44:16;5.60;99.90
12853;DHT22;6495;51.808;7.478;2023-02-01T04:46:46;5.60;99.90
12853;DHT22;6495;51.808;7.478;2023-02-01T04:49:15;5.60;99.90
12853;DHT22;6495;51.808;7.478;2023-02-01T04:51:43;5.60;99.90
12853;DHT22;6495;51.808;7.478;2023-02-01T04:54:12;5.60;99.90
12853;DHT22;6495;51.808;7.478;2023-02-01T04:56:40;5.60;99.90
12853;DHT22;6495;51.808;7.478;2023-02-01T04:59:10;5.50;99.90
12853;DHT22;6495;51.808;7.478;2023-02-01T05:01:39;5.60;99.90
12853;DHT22;6495;51.808;7.478;2023-02-01T05:04:08;5.60;99.90
12853;DHT22;6495;51.808;7.478;2023-02-01T05:06:37;5.50;99.90
12853;DHT22;6495;51.808;7.478;2023-02-01T05:09:05;5.60;99.90
12853;DHT22;6495;51.808;7.478;2023-02-01T05:11:33;5.50;99.90
12853;DHT22;6495;51.808;7.478;2023-02-01T05:14:19;5.60;99.90
12853;DHT22;6495;51.808;7.478;2023-02-01T05:16:49;5.60;99.90
12853;DHT22;6495;51.808;7.478;2023-02-01T05:19:17;5.60;99.90
12853;DHT22;6495;51.808;7.478;2023-02-01T05:21:45;5.50;99.90
12853;DHT22;6495;51.808;7.478;2023-02-01T05:24:14;5.50;99.90
12853;DHT22;6495;51.808;7.478;2023-02-01T05:26:46;5.50;99.90
12853;DHT22;6495;51.808;7.478;2023-02-01T05:29:16;5.50;99.90
12853;DHT22;6495;51.808;7.478;2023-02-01T05:31:45;5.50;99.90
12853;DHT22;6495;51.808;7.478;2023-02-01T05:34:16;5.50;99.90
12853;DHT22;6495;51.808;7.478;2023-02-01T05:36:45;5.60;99.90
12853;DHT22;6495;51.808;7.478;2023-02-01T05:39:13;5.50;99.90
12853;DHT22;6495;51.808;7.478;2023-02-01T05:41:41;5.50;99.90
12853;DHT22;6495;51.808;7.478;2023-02-01T05:44:10;5.50;99.90
12853;DHT22;6495;51.808;7.478;2023-02-01T05:46:39;5.50;99.90
12853;DHT22;6495;51.808;7.478;2023-02-01T05:49:07;5.50;99.90
12853;DHT22;6495;51.808;7.478;2023-02-01T05:51:37;5.50;99.90
12853;DHT22;6495;51.808;7.478;2023-02-01T05:54:05;5.50;99.90
12853;DHT22;6495;51.808;7.478;2023-02-01T05:56:33;5.50;99.90
12853;DHT22;6495;51.808;7.478;2023-02-01T05:59:01;5.50;99.90
12853;DHT22;6495;51.808;7.478;2023-02-01T06:01:30;5.50;99.90
12853;DHT22;6495;51.808;7.478;2023-02-01T06:03:58;5.50;99.90
12853;DHT22;6495;51.808;7.478;2023-02-01T06:06:26;5.50;99.90
12853;DHT22;6495;51.808;7.478;2023-02-01T06:08:56;5.50;99.90
12853;DHT22;6495;51.808;7.478;2023-02-01T06:11:25;5.50;99.90
12853;DHT22;6495;51.808;7.478;2023-02-01T06:13:59;5.50;99.90
12853;DHT22;6495;51.808;7.478;2023-02-01T06:16:27;5.50;99.90
12853;DHT22;6495;51.808;7.478;2023-02-01T06:18:56;5.50;99.90
12853;DHT22;6495;51.808;7.478;2023-02-01T06:21:24;5.50;99.90
12853;DHT22;6495;51.808;7.478;2023-02-01T06:23:53;5.50;99.90
12853;DHT22;6495;51.808;7.478;2023-02-01T06:26:25;5.50;99.90
12853;DHT22;6495;51.808;7.478;2023-02-01T06:28:56;5.50;99.90
12853;DHT22;6495;51.808;7.478;2023-02-01T06:31:24;5.50;99.90
12853;DHT22;6495;51.808;7.478;2023-02-01T06:33:53;5.50;99.90
12853;DHT22;6495;51.808;7.478;2023-02-01T06:36:21;5.50;99.90
12853;DHT22;6495;51.808;7.478;2023-02-01T06:38:50;5.50;99.90
12853;DHT22;6495;51.808;7.478;2023-02-01T06:41:18;5.50;99.90
12853;DHT22;6495;51.808;7.478;2023-02-01T06:43:48;5.50;99.90
12853;DHT22;6495;51.808;7.478;2023-02-01T06:46:17;5.50;99.90
12853;DHT22;6495;51.808;7.478;2023-02-01T06:48:45;5.50;99.90
12853;DHT22;6495;51.808;7.478;2023-02-01T06:51:22;5.50;99.90
12853;DHT22;6495;51.808;7.478;2023-02-01T06:53:52;5.50;99.90
12853;DHT22;6495;51.808;7.478;2023-02-01T06:56:20;5.50;99.90
12853;DHT22;6495;51.808;7.478;2023-02-01T06:58:50;5.50;99.90
12853;DHT22;6495;51.808;7.478;2023-02-01T07:01:19;5.60;99.90
12853;DHT22;6495;51.808;7.478;2023-02-01T07:03:51;5.60;99.90
12853;DHT22;6495;51.808;7.478;2023-02-01T07:06:23;5.60;99.90
12853;DHT22;6495;51.808;7.478;2023-02-01T07:08:51;5.50;99.90
12853;DHT22;6495;51.808;7.478;2023-02-01T07:11:23;5.50;99.90
12853;DHT22;6495;51.808;7.478;2023-02-01T07:13:58;5.60;99.90
12853;DHT22;6495;51.808;7.478;2023-02-01T07:16:26;5.60;99.90
12853;DHT22;6495;51.808;7.478;2023-02-01T07:18:58;5.60;99.90
12853;DHT22;6495;51.808;7.478;2023-02-01T07:21:28;5.60;99.90
12853;DHT22;6495;51.808;7.478;2023-02-01T07:24:01;5.60;99.90
12853;DHT22;6495;51.808;7.478;2023-02-01T07:26:29;5.60;99.90
12853;DHT22;6495;51.808;7.478;2023-02-01T07:29:00;5.60;99.90
12853;DHT22;6495;51.808;7.478;2023-02-01T07:31:29;5.60;99.90
12853;DHT22;6495;51.808;7.478;2023-02-01T07:34:00;5.70;99.90
12853;DHT22;6495;51.808;7.478;2023-02-01T07:36:34;5.60;99.90
12853;DHT22;6495;51.808;7.478;2023-02-01T07:39:03;5.70;99.90
12853;DHT22;6495;51.808;7.478;2023-02-01T07:41:32;5.70;99.90
12853;DHT22;6495;51.808;7.478;2023-02-01T07:44:02;5.70;99.90
12853;DHT22;6495;51.808;7.478;2023-02-01T07:46:32;5.70;99.90
12853;DHT22;6495;51.808;7.478;2023-02-01T07:49:01;5.70;99.90
12853;DHT22;6495;51.808;7.478;2023-02-01T07:51:30;5.70;99.90
12853;DHT22;6495;51.808;7.478;2023-02-01T07:53:59;5.70;99.90
12853;DHT22;6495;51.808;7.478;2023-02-01T07:56:27;5.70;99.90
12853;DHT22;6495;51.808;7.478;2023-02-01T07:58:56;5.70;99.90
12853;DHT22;6495;51.808;7.478;2023-02-01T08:01:28;5.70;99.90
12853;DHT22;6495;51.808;7.478;2023-02-01T08:03:57;5.70;99.90
12853;DHT22;6495;51.808;7.478;2023-02-01T08:06:31;5.80;99.90
12853;DHT22;6495;51.808;7.478;2023-02-01T08:09:04;5.70;99.90
12853;DHT22;6495;51.808;7.478;2023-02-01T08:11:34;5.80;99.90
12853;DHT22;6495;51.808;7.478;2023-02-01T08:14:05;5.80;99.90
12853;DHT22;6495;51.808;7.478;2023-02-01T08:16:35;5.80;99.90
12853;DHT22;6495;51.808;7.478;2023-02-01T08:19:06;5.80;99.90
12853;DHT22;6495;51.808;7.478;2023-02-01T08:21:37;5.80;99.90
12853;DHT22;6495;51.808;7.478;2023-02-01T08:24:07;5.80;99.90
12853;DHT22;6495;51.808;7.478;2023-02-01T08:26:37;5.80;99.90
12853;DHT22;6495;51.808;7.478;2023-02-01T08:29:09;5.80;99.90
12853;DHT22;6495;51.808;7.478;2023-02-01T08:31:40;5.80;99.90
12853;DHT22;6495;51.808;7.478;2023-02-01T08:34:10;5.90;99.90
12853;DHT22;6495;51.808;7.478;2023-02-01T08:36:41;5.90;99.90
12853;DHT22;6495;51.808;7.478;2023-02-01T08:39:10;5.90;99.90
12853;DHT22;6495;51.808;7.478;2023-02-01T08:41:39;5.90;99.90
12853;DHT22;6495;51.808;7.478;2023-02-01T08:44:10;5.90;99.90
12853;DHT22;6495;51.808;7.478;2023-02-01T08:46:40;5.90;99.90
12853;DHT22;6495;51.808;7.478;2023-02-01T08:49:11;5.90;99.90
12853;DHT22;6495;51.808;7.478;2023-02-01T08:51:42;6.00;99.90
12853;DHT22;6495;51.808;7.478;2023-02-01T08:54:10;6.00;99.90
12853;DHT22;6495;51.808;7.478;2023-02-01T08:56:39;6.00;99.90
12853;DHT22;6495;51.808;7.478;2023-02-01T08:59:07;6.00;99.90
12853;DHT22;6495;51.808;7.478;2023-02-01T09:01:36;6.00;99.90
12853;DHT22;6495;51.808;7.478;2023-02-01T09:04:06;6.00;99.90
12853;DHT22;6495;51.808;7.478;2023-02-01T09:06:34;6.00;99.90
12853;DHT22;6495;51.808;7.478;2023-02-01T09:09:03;6.00;99.90
12853;DHT22;6495;51.808;7.478;2023-02-01T09:11:31;6.00;99.90
12853;DHT22;6495;51.808;7.478;2023-02-01T09:14:02;6.10;99.90
12853;DHT22;6495;51.808;7.478;2023-02-01T09:17:01;6.10;99.90
12853;DHT22;6495;51.808;7.478;2023-02-01T09:19:46;6.10;99.90
12853;DHT22;6495;51.808;7.478;2023-02-01T09:22:15;6.10;99.90
12853;DHT22;6495;51.808;7.478;2023-02-01T09:24:43;6.10;99.90
12853;DHT22;6495;51.808;7.478;2023-02-01T09:27:12;6.10;99.90
12853;DHT22;6495;51.808;7.478;2023-02-01T09:29:42;6.20;99.90
12853;DHT22;6495;51.808;7.478;2023-02-01T09:32:10;6.20;99.90
12853;DHT22;6495;51.808;7.478;2023-02-01T09:34:39;6.20;99.90
12853;DHT22;6495;51.808;7.478;2023-02-01T09:37:09;6.30;99.90
12853;DHT22;6495;51.808;7.478;2023-02-01T09:39:37;6.30;99.90
12853;DHT22;6495;51.808;7.478;2023-02-01T09:42:15;6.40;99.90
12853;DHT22;6495;51.808;7.478;2023-02-01T09:45:00;6.40;99.90
12853;DHT22;6495;51.808;7.478;2023-02-01T09:47:40;6.40;99.90
12853;DHT22;6495;51.808;7.478;2023-02-01T09:50:17;6.50;99.90
12853;DHT22;6495;51.808;7.478;2023-02-01T09:52:54;6.50;99.90
12853;DHT22;6495;51.808;7.478;2023-02-01T09:55:32;6.60;99.90
12853;DHT22;6495;51.808;7.478;2023-02-01T09:58:07;6.60;99.90
12853;DHT22;6495;51.808;7.478;2023-02-01T10:00:47;6.60;99.90
12853;DHT22;6495;51.808;7.478;2023-02-01T10:03:20;6.70;99.90
12853;DHT22;6495;51.808;7.478;2023-02-01T10:06:17;6.70;99.90
12853;DHT22;6495;51.808;7.478;2023-02-01T10:09:25;6.70;99.90
12853;DHT22;6495;51.808;7.478;2023-02-01T10:12:42;6.70;99.90
12853;DHT22;6495;51.808;7.478;2023-02-01T10:15:28;6.70;99.90
12853;DHT22;6495;51.808;7.478;2023-02-01T10:18:30;6.80;99.90
12853;DHT22;6495;51.808;7.478;2023-02-01T10:21:18;6.80;99.90
12853;DHT22;6495;51.808;7.478;2023-02-01T10:24:20;6.80;99.90
12853;DHT22;6495;51.808;7.478;2023-02-01T10:27:12;6.80;99.90
12853;DHT22;6495;51.808;7.478;2023-02-01T10:29:44;6.80;99.90
12853;DHT22;6495;51.808;7.478;2023-02-01T10:32:17;6.80;99.90
12853;DHT22;6495;51.808;7.478;2023-02-01T10:34:51;6.80;99.90
12853;DHT22;6495;51.808;7.478;2023-02-01T10:37:27;6.80;99.90
12853;DHT22;6495;51.808;7.478;2023-02-01T10:40:01;6.80;99.90
12853;DHT22;6495;51.808;7.478;2023-02-01T10:42:37;6.80;99.90
12853;DHT22;6495;51.808;7.478;2023-02-01T10:45:14;6.80;99.90
12853;DHT22;6495;51.808;7.478;2023-02-01T10:47:45;6.80;99.90
12853;DHT22;6495;51.808;7.478;2023-02-01T10:50:19;6.70;99.90
12853;DHT22;6495;51.808;7.478;2023-02-01T10:53:04;6.70;99.90
12853;DHT22;6495;51.808;7.478;2023-02-01T10:55:40;6.70;99.90
12853;DHT22;6495;51.808;7.478;2023-02-01T10:58:17;6.80;99.90
12853;DHT22;6495;51.808;7.478;2023-02-01T11:00:51;6.80;99.90
12853;DHT22;6495;51.808;7.478;2023-02-01T11:03:32;6.70;99.90
12853;DHT22;6495;51.808;7.478;2023-02-01T11:06:10;6.80;99.90
12853;DHT22;6495;51.808;7.478;2023-02-01T11:08:43;6.80;99.90
12853;DHT22;6495;51.808;7.478;2023-02-01T11:11:15;6.80;99.90
12853;DHT22;6495;51.808;7.478;2023-02-01T11:13:52;6.80;99.90
12853;DHT22;6495;51.808;7.478;2023-02-01T11:16:30;6.80;99.90
12853;DHT22;6495;51.808;7.478;2023-02-01T11:19:01;6.80;99.90
12853;DHT22;6495;51.808;7.478;2023-02-01T11:21:31;6.80;99.90
12853;DHT22;6495;51.808;7.478;2023-02-01T11:24:02;6.80;99.90
12853;DHT22;6495;51.808;7.478;2023-02-01T11:26:33;6.80;99.90
12853;DHT22;6495;51.808;7.478;2023-02-01T11:29:12;6.80;99.90
12853;DHT22;6495;51.808;7.478;2023-02-01T11:31:45;6.80;99.90
12853;DHT22;6495;51.808;7.478;2023-02-01T11:34:16;6.90;99.90
12853;DHT22;6495;51.808;7.478;2023-02-01T11:36:49;6.90;99.90
12853;DHT22;6495;51.808;7.478;2023-02-01T11:39:25;6.90;99.90
12853;DHT22;6495;51.808;7.478;2023-02-01T11:42:01;6.90;99.90
12853;DHT22;6495;51.808;7.478;2023-02-01T11:44:35;6.90;99.90
12853;DHT22;6495;51.808;7.478;2023-02-01T11:47:25;6.90;99.90
12853;DHT22;6495;51.808;7.478;2023-02-01T11:49:56;6.90;99.90
12853;DHT22;6495;51.808;7.478;2023-02-01T11:52:37;6.80;99.90
12853;DHT22;6495;51.808;7.478;2023-02-01T11:55:33;6.80;99.90
12853;DHT22;6495;51.808;7.478;2023-02-01T11:58:25;6.80;99.90
12853;DHT22;6495;51.808;7.478;2023-02-01T12:01:30;6.80;99.90
12853;DHT22;6495;51.808;7.478;2023-02-01T12:04:40;6.80;99.90
12853;DHT22;6495;51.808;7.478;2023-02-01T12:07:21;6.70;99.90
12853;DHT22;6495;51.808;7.478;2023-02-01T12:10:02;6.70;99.90
12853;DHT22;6495;51.808;7.478;2023-02-01T12:12:43;6.70;99.90
12853;DHT22;6495;51.808;7.478;2023-02-01T12:15:30;6.70;99.90
12853;DHT22;6495;51.808;7.478;2023-02-01T12:18:33;6.60;99.90
12853;DHT22;6495;51.808;7.478;2023-02-01T12:21:41;6.60;99.90
12853;DHT22;6495;51.808;7.478;2023-02-01T12:24:45;6.60;99.90
12853;DHT22;6495;51.808;7.478;2023-02-01T12:28:01;6.60;99.90
12853;DHT22;6495;51.808;7.478;2023-02-01T12:34:10;6.50;99.90
12853;DHT22;6495;51.808;7.478;2023-02-01T12:36:56;6.50;99.90
12853;DHT22;6495;51.808;7.478;2023-02-01T12:39:39;6.50;99.90
12853;DHT22;6495;51.808;7.478;2023-02-01T12:42:16;6.50;99.90
12853;DHT22;6495;51.808;7.478;2023-02-01T12:44:51;6.50;99.90
12853;DHT22;6495;51.808;7.478;2023-02-01T12:47:32;6.50;99.90
12853;DHT22;6495;51.808;7.478;2023-02-01T12:50:12;6.50;99.90
12853;DHT22;6495;51.808;7.478;2023-02-01T12:52:50;6.50;99.90
12853;DHT22;6495;51.808;7.478;2023-02-01T12:55:23;6.50;99.90
12853;DHT22;6495;51.808;7.478;2023-02-01T12:58:00;6.50;99.90
12853;DHT22;6495;51.808;7.478;2023-02-01T13:00:38;6.40;99.90
12853;DHT22;6495;51.808;7.478;2023-02-01T13:03:18;6.40;99.90
12853;DHT22;6495;51.808;7.478;2023-02-01T13:06:01;6.40;99.90
12853;DHT22;6495;51.808;7.478;2023-02-01T13:08:40;6.40;99.90
12853;DHT22;6495;51.808;7.478;2023-02-01T13:11:16;6.40;99.90
12853;DHT22;6495;51.808;7.478;2023-02-01T13:13:56;6.40;99.90
12853;DHT22;6495;51.808;7.478;2023-02-01T13:16:30;6.40;99.90
12853;DHT22;6495;51.808;7.478;2023-02-01T13:19:09;6.40;99.90
12853;DHT22;6495;51.808;7.478;2023-02-01T13:21:46;6.40;99.90
12853;DHT22;6495;51.808;7.478;2023-02-01T13:24:27;6.40;99.90
12853;DHT22;6495;51.808;7.478;2023-02-01T13:27:01;6.40;99.90
12853;DHT22;6495;51.808;7.478;2023-02-01T13:29:30;6.40;99.90
12853;DHT22;6495;51.808;7.478;2023-02-01T13:32:23;6.50;99.90
12853;DHT22;6495;51.808;7.478;2023-02-01T13:35:59;6.50;99.90
12853;DHT22;6495;51.808;7.478;2023-02-01T13:41:56;6.50;99.90
12853;DHT22;6495;51.808;7.478;2023-02-01T13:44:29;6.50;99.90
12853;DHT22;6495;51.808;7.478;2023-02-01T13:47:03;6.60;99.90
12853;DHT22;6495;51.808;7.478;2023-02-01T13:49:40;6.60;99.90
12853;DHT22;6495;51.808;7.478;2023-02-01T13:52:25;6.60;99.90
12853;DHT22;6495;51.808;7.478;2023-02-01T13:55:22;6.70;99.90
12853;DHT22;6495;51.808;7.478;2023-02-01T13:58:17;6.70;99.90
12853;DHT22;6495;51.808;7.478;2023-02-01T14:00:47;6.70;99.90
12853;DHT22;6495;51.808;7.478;2023-02-01T14:03:20;6.80;99.90
12853;DHT22;6495;51.808;7.478;2023-02-01T14:06:01;6.80;99.90
12853;DHT22;6495;51.808;7.478;2023-02-01T14:09:18;6.80;99.90
12853;DHT22;6495;51.808;7.478;2023-02-01T14:15:26;6.90;99.90
12853;DHT22;6495;51.808;7.478;2023-02-01T14:17:55;6.90;99.90
12853;DHT22;6495;51.808;7.478;2023-02-01T14:20:48;6.90;99.90
12853;DHT22;6495;51.808;7.478;2023-02-01T14:23:27;6.90;99.90
12853;DHT22;6495;51.808;7.478;2023-02-01T14:26:16;6.90;99.90
12853;DHT22;6495;51.808;7.478;2023-02-01T14:28:59;6.90;99.90
12853;DHT22;6495;51.808;7.478;2023-02-01T14:31:39;6.90;99.90
12853;DHT22;6495;51.808;7.478;2023-02-01T14:34:18;6.80;99.90
12853;DHT22;6495;51.808;7.478;2023-02-01T14:36:52;6.80;99.90
12853;DHT22;6495;51.808;7.478;2023-02-01T14:39:29;6.80;99.90
12853;DHT22;6495;51.808;7.478;2023-02-01T14:42:04;6.80;99.90
12853;DHT22;6495;51.808;7.478;2023-02-01T14:44:44;6.80;99.90
12853;DHT22;6495;51.808;7.478;2023-02-01T14:47:31;6.80;99.90
12853;DHT22;6495;51.808;7.478;2023-02-01T14:50:27;6.80;99.90
12853;DHT22;6495;51.808;7.478;2023-02-01T14:53:18;6.80;99.90
12853;DHT22;6495;51.808;7.478;2023-02-01T14:55:52;6.80;99.90
12853;DHT22;6495;51.808;7.478;2023-02-01T14:58:41;6.80;99.90
12853;DHT22;6495;51.808;7.478;2023-02-01T15:01:21;6.80;99.90
12853;DHT22;6495;51.808;7.478;2023-02-01T15:03:58;6.80;99.90
12853;DHT22;6495;51.808;7.478;2023-02-01T15:06:33;6.80;99.90
12853;DHT22;6495;51.808;7.478;2023-02-01T15:09:09;6.70;99.90
12853;DHT22;6495;51.808;7.478;2023-02-01T15:12:01;6.70;99.90
12853;DHT22;6495;51.808;7.478;2023-02-01T15:14:33;6.80;99.90
12853;DHT22;6495;51.808;7.478;2023-02-01T15:17:18;6.70;99.90
12853;DHT22;6495;51.808;7.478;2023-02-01T15:19:55;6.80;99.90
12853;DHT22;6495;51.808;7.478;2023-02-01T15:22:24;6.80;99.90
12853;DHT22;6495;51.808;7.478;2023-02-01T15:24:54;6.80;99.90
12853;DHT22;6495;51.808;7.478;2023-02-01T15:27:25;6.80;99.90
12853;DHT22;6495;51.808;7.478;2023-02-01T15:29:54;6.80;99.90
12853;DHT22;6495;51.808;7.478;2023-02-01T15:32:31;6.80;99.90
12853;DHT22;6495;51.808;7.478;2023-02-01T15:35:01;6.80;99.90
12853;DHT22;6495;51.808;7.478;2023-02-01T15:37:31;6.80;99.90
12853;DHT22;6495;51.808;7.478;2023-02-01T15:40:04;6.80;99.90
12853;DHT22;6495;51.808;7.478;2023-02-01T15:42:53;6.80;99.90
12853;DHT22;6495;51.808;7.478;2023-02-01T15:45:25;6.80;99.90
12853;DHT22;6495;51.808;7.478;2023-02-01T15:47:58;6.80;99.90
12853;DHT22;6495;51.808;7.478;2023-02-01T15:50:29;6.80;99.90
12853;DHT22;6495;51.808;7.478;2023-02-01T15:52:59;6.80;99.90
12853;DHT22;6495;51.808;7.478;2023-02-01T15:55:36;6.80;99.90
12853;DHT22;6495;51.808;7.478;2023-02-01T15:58:15;6.80;99.90
12853;DHT22;6495;51.808;7.478;2023-02-01T16:00:47;6.80;99.90
12853;DHT22;6495;51.808;7.478;2023-02-01T16:03:28;6.80;99.90
12853;DHT22;6495;51.808;7.478;2023-02-01T16:06:04;6.80;99.90
12853;DHT22;6495;51.808;7.478;2023-02-01T16:08:34;6.70;99.90
12853;DHT22;6495;51.808;7.478;2023-02-01T16:11:24;6.70;99.90
12853;DHT22;6495;51.808;7.478;2023-02-01T16:13:54;6.70;99.90
12853;DHT22;6495;51.808;7.478;2023-02-01T16:16:23;6.70;99.90
12853;DHT22;6495;51.808;7.478;2023-02-01T16:18:54;6.70;99.90
12853;DHT22;6495;51.808;7.478;2023-02-01T16:21:22;6.60;99.90
12853;DHT22;6495;51.808;7.478;2023-02-01T16:23:52;6.70;99.90
12853;DHT22;6495;51.808;7.478;2023-02-01T16:26:21;6.60;99.90
12853;DHT22;6495;51.808;7.478;2023-02-01T16:28:49;6.60;99.90
12853;DHT22;6495;51.808;7.478;2023-02-01T16:31:21;6.60;99.90
12853;DHT22;6495;51.808;7.478;2023-02-01T16:33:55;6.60;99.90
12853;DHT22;6495;51.808;7.478;2023-02-01T16:36:24;6.60;99.90
12853;DHT22;6495;51.808;7.478;2023-02-01T16:38:54;6.60;99.90
12853;DHT22;6495;51.808;7.478;2023-02-01T16:41:24;6.60;99.90
12853;DHT22;6495;51.808;7.478;2023-02-01T16:43:55;6.60;99.90
12853;DHT22;6495;51.808;7.478;2023-02-01T16:46:24;6.60;99.90
12853;DHT22;6495;51.808;7.478;2023-02-01T16:48:58;6.60;99.90
12853;DHT22;6495;51.808;7.478;2023-02-01T16:51:29;6.60;99.90
12853;DHT22;6495;51.808;7.478;2023-02-01T16:54:00;6.60;99.90
12853;DHT22;6495;51.808;7.478;2023-02-01T16:56:30;6.60;99.90
12853;DHT22;6495;51.808;7.478;2023-02-01T16:59:00;6.50;99.90
12853;DHT22;6495;51.808;7.478;2023-02-01T17:01:28;6.50;99.90
12853;DHT22;6495;51.808;7.478;2023-02-01T17:03:58;6.50;99.90
12853;DHT22;6495;51.808;7.478;2023-02-01T17:06:26;6.40;99.90
12853;DHT22;6495;51.808;7.478;2023-02-01T17:08:57;6.40;99.90